Time;durP1;ratioP1;P1;durP2;ratioP2;P2;SDS_P1;SDS_P2;PMS_P1;PMS_P2;Temp;Humidity;BMP_temperature;BMP_pressure;BME280_temperature;BME280_humidity;BME280_pressure;Samples;Min_cycle;Max_cycle;Signal;HPM_P1;HPM_P2
2022/06/18 00:01:34;;;;;;;4.13;1.98;;;21.20;99.90;;;;;;5080341;28;20142;-66
2022/06/18 00:04:01;;;;;;;3.35;1.92;;;21.10;99.90;;;;;;5082724;28;20391;-66
2022/06/18 00:06:29;;;;;;;6.32;2.30;;;21.10;99.90;;;;;;5077237;28;21494;-66
2022/06/18 00:08:55;;;;;;;6.43;2.38;;;21.10;99.90;;;;;;5083289;28;20384;-65
2022/06/18 00:14:05;;;;;;;7.80;2.42;;;21.10;99.90;;;;;;5079884;28;20109;-64
2022/06/18 00:16:31;;;;;;;31.38;23.85;;;21.00;99.90;;;;;;5073587;28;20028;-61
2022/06/18 00:18:57;;;;;;;26.15;19.33;;;21.00;99.90;;;;;;5081235;28;20080;-66
2022/06/18 00:21:25;;;;;;;27.30;17.92;;;21.10;99.90;;;;;;5078187;28;20586;-65
2022/06/18 00:23:51;;;;;;;17.13;6.82;;;21.10;99.90;;;;;;5072514;28;20090;-65
2022/06/18 00:26:17;;;;;;;5.03;3.00;;;21.10;99.90;;;;;;5077020;28;20035;-66
2022/06/18 00:28:43;;;;;;;6.03;2.72;;;21.00;99.90;;;;;;5073386;28;20388;-66
2022/06/18 00:31:09;;;;;;;9.85;2.85;;;20.90;99.90;;;;;;5077916;28;20027;-65
2022/06/18 00:33:40;;;;;;;8.82;2.85;;;20.90;99.90;;;;;;5081246;28;20020;-66
2022/06/18 00:36:11;;;;;;;7.35;2.33;;;20.90;99.90;;;;;;5079471;28;20278;-66
2022/06/18 00:38:40;;;;;;;8.88;2.45;;;20.90;99.90;;;;;;5076985;28;20103;-65
2022/06/18 00:41:07;;;;;;;4.05;2.30;;;20.70;99.90;;;;;;5084085;28;20024;-66
2022/06/18 00:43:47;;;;;;;8.23;2.63;;;20.70;99.90;;;;;;5088963;28;20024;-66
2022/06/18 00:46:33;;;;;;;9.18;2.40;;;20.70;99.90;;;;;;5073897;28;20139;-65
2022/06/18 00:49:27;;;;;;;12.48;2.60;;;20.80;99.90;;;;;;5076642;28;20023;-65
2022/06/18 00:52:00;;;;;;;9.35;2.63;;;20.80;99.90;;;;;;5072864;28;20240;-66
2022/06/18 00:54:31;;;;;;;8.65;2.25;;;20.80;99.90;;;;;;5084743;28;20368;-65
2022/06/18 00:57:18;;;;;;;8.05;2.38;;;20.80;99.90;;;;;;5080204;28;20634;-67
2022/06/18 00:59:52;;;;;;;7.30;2.28;;;20.70;99.90;;;;;;5076966;28;20020;-66
2022/06/18 01:02:22;;;;;;;7.85;2.47;;;20.80;99.90;;;;;;5083749;28;20028;-65
2022/06/18 01:04:48;;;;;;;8.02;2.00;;;20.90;99.90;;;;;;5084244;28;20511;-67
2022/06/18 01:07:25;;;;;;;6.72;2.63;;;20.80;99.90;;;;;;5079968;28;20155;-65
2022/06/18 01:09:52;;;;;;;7.85;2.80;;;20.70;99.90;;;;;;5081674;28;20028;-65
2022/06/18 01:12:17;;;;;;;6.70;2.47;;;20.80;99.90;;;;;;5091619;28;20028;-67
2022/06/18 01:14:46;;;;;;;6.82;2.53;;;20.80;99.90;;;;;;5077250;28;20069;-65
2022/06/18 01:17:11;;;;;;;10.07;2.60;;;20.70;99.90;;;;;;5081809;28;20028;-66
2022/06/18 01:19:47;;;;;;;9.60;2.60;;;20.70;99.90;;;;;;5082742;28;20085;-66
2022/06/18 01:22:39;;;;;;;8.55;2.55;;;20.60;99.90;;;;;;5074965;28;20079;-66
2022/06/18 01:25:07;;;;;;;6.68;2.30;;;20.80;99.90;;;;;;5093597;28;20024;-66
2022/06/18 01:27:34;;;;;;;8.80;2.33;;;20.70;99.90;;;;;;5078324;28;20480;-66
2022/06/18 01:30:04;;;;;;;5.05;2.17;;;20.70;99.90;;;;;;5077024;28;20032;-66
2022/06/18 01:32:30;;;;;;;7.05;2.05;;;20.80;99.90;;;;;;5083731;28;20056;-65
2022/06/18 01:34:55;;;;;;;5.40;2.20;;;20.70;99.90;;;;;;5079924;28;20048;-65
2022/06/18 01:37:21;;;;;;;5.90;2.25;;;20.70;99.90;;;;;;5079251;28;20059;-66
2022/06/18 01:39:48;;;;;;;7.63;2.17;;;20.60;99.90;;;;;;5085993;28;20080;-65
2022/06/18 01:42:35;;;;;;;4.25;2.30;;;20.50;99.90;;;;;;5075770;28;20720;-67
2022/06/18 01:45:05;;;;;;;5.00;2.10;;;20.50;99.90;;;;;;5086660;28;20645;-65
2022/06/18 01:47:40;;;;;;;3.42;1.83;;;20.40;99.90;;;;;;5084745;28;20028;-65
2022/06/18 01:50:19;;;;;;;5.15;2.10;;;20.20;99.90;;;;;;5088835;28;20034;-65
2022/06/18 01:52:55;;;;;;;6.68;2.38;;;20.10;99.90;;;;;;5083831;28;20073;-65
2022/06/18 01:55:37;;;;;;;5.63;2.17;;;20.00;99.90;;;;;;5083597;28;20031;-66
2022/06/18 01:58:28;;;;;;;4.90;2.22;;;20.10;99.90;;;;;;5076250;28;20028;-65
2022/06/18 02:00:57;;;;;;;5.72;2.20;;;20.20;99.90;;;;;;5086120;28;20047;-65
2022/06/18 02:03:23;;;;;;;6.95;2.50;;;20.00;99.90;;;;;;5078670;28;20371;-65
2022/06/18 02:05:49;;;;;;;6.00;2.33;;;20.10;99.90;;;;;;5082848;28;20027;-66
2022/06/18 02:08:17;;;;;;;4.03;2.38;;;19.90;99.90;;;;;;5079869;28;20034;-66
2022/06/18 02:10:52;;;;;;;6.63;2.42;;;20.00;99.90;;;;;;5076756;28;20017;-65
2022/06/18 02:13:21;;;;;;;8.25;2.08;;;19.80;99.90;;;;;;5082540;28;20091;-65
2022/06/18 02:15:47;;;;;;;6.38;2.40;;;19.80;99.90;;;;;;5079797;28;20031;-67
2022/06/18 02:18:15;;;;;;;4.43;2.45;;;19.90;99.90;;;;;;5081625;28;20055;-65
2022/06/18 02:20:53;;;;;;;9.15;2.58;;;19.80;99.90;;;;;;5079354;28;20074;-66
2022/06/18 02:23:21;;;;;;;5.57;2.50;;;19.70;99.90;;;;;;5079243;28;20387;-67
2022/06/18 02:25:47;;;;;;;7.60;2.92;;;19.80;99.90;;;;;;5083322;28;20116;-67
2022/06/18 02:28:23;;;;;;;7.78;2.50;;;19.80;99.90;;;;;;5082553;28;20142;-66
2022/06/18 02:30:51;;;;;;;6.53;2.30;;;19.90;99.90;;;;;;5083101;28;20175;-65
2022/06/18 02:33:28;;;;;;;7.10;2.60;;;19.80;99.90;;;;;;5079417;28;20016;-66
2022/06/18 02:35:55;;;;;;;6.55;2.45;;;19.60;99.90;;;;;;5083417;28;20019;-67
2022/06/18 02:38:22;;;;;;;5.50;2.30;;;19.70;99.90;;;;;;5072819;28;20678;-65
2022/06/18 02:40:48;;;;;;;4.38;2.63;;;19.60;99.90;;;;;;5079795;28;20107;-65
2022/06/18 02:43:15;;;;;;;4.70;2.40;;;19.60;99.90;;;;;;5080322;28;20502;-67
2022/06/18 02:45:44;;;;;;;8.73;2.83;;;19.60;99.90;;;;;;5081424;28;20028;-65
2022/06/18 02:48:10;;;;;;;8.18;2.40;;;19.60;99.90;;;;;;5077282;28;20432;-66
2022/06/18 02:50:40;;;;;;;6.60;2.20;;;19.60;99.90;;;;;;5083493;28;20020;-66
2022/06/18 02:53:08;;;;;;;7.43;2.50;;;19.50;99.90;;;;;;5082783;28;20021;-65
2022/06/18 02:55:41;;;;;;;6.43;2.40;;;19.30;99.90;;;;;;5083026;28;20078;-64
2022/06/18 02:58:10;;;;;;;;;;;19.40;99.90;;;;;;5082011;28;21162;-67
2022/06/18 03:00:37;;;;;;;3.80;2.33;;;19.40;99.90;;;;;;5078655;28;20053;-65
2022/06/18 03:03:11;;;;;;;4.47;2.10;;;19.40;99.90;;;;;;5089300;28;20032;-66
2022/06/18 03:05:38;;;;;;;7.63;2.45;;;19.20;99.90;;;;;;5082865;28;20034;-64
2022/06/18 03:08:04;;;;;;;5.03;2.45;;;19.20;99.90;;;;;;5087837;28;20028;-67
2022/06/18 03:13:18;;;;;;;8.32;2.40;;;19.10;99.90;;;;;;5087777;28;20158;-67
2022/06/18 03:15:44;;;;;;;9.20;2.60;;;19.20;99.90;;;;;;5078327;28;20016;-65
2022/06/18 03:18:10;;;;;;;5.45;2.45;;;19.10;99.90;;;;;;5089342;28;20061;-66
2022/06/18 03:20:56;;;;;;;6.32;2.50;;;19.20;99.90;;;;;;5077566;28;20450;-66
2022/06/18 03:23:25;;;;;;;6.88;2.72;;;19.20;99.90;;;;;;5077615;28;20044;-65
2022/06/18 03:25:52;;;;;;;4.50;2.35;;;19.00;99.90;;;;;;5082437;28;20086;-65
2022/06/18 03:28:19;;;;;;;7.53;2.55;;;19.10;99.90;;;;;;5080822;28;20024;-65
2022/06/18 03:30:44;;;;;;;7.45;2.38;;;18.90;99.90;;;;;;5082114;28;20028;-67
2022/06/18 03:33:11;;;;;;;6.47;2.38;;;19.00;99.90;;;;;;5081860;28;20699;-66
2022/06/18 03:35:39;;;;;;;3.83;2.63;;;19.00;99.90;;;;;;5090796;28;20035;-66
2022/06/18 03:38:05;;;;;;;5.28;2.90;;;19.00;99.90;;;;;;5078232;28;20031;-66
2022/06/18 03:40:30;;;;;;;3.95;2.55;;;19.00;99.90;;;;;;5079109;28;20043;-64
2022/06/18 03:42:56;;;;;;;4.38;2.70;;;18.90;99.90;;;;;;5083528;28;20393;-65
2022/06/18 03:45:22;;;;;;;5.25;3.03;;;18.80;99.90;;;;;;5086473;28;20028;-66
2022/06/18 03:47:48;;;;;;;4.90;2.30;;;18.80;99.90;;;;;;5080119;28;20024;-65
2022/06/18 03:50:17;;;;;;;3.78;2.72;;;18.90;99.90;;;;;;5082449;28;20024;-65
2022/06/18 03:52:43;;;;;;;7.07;2.70;;;19.10;99.90;;;;;;5081048;28;20539;-65
2022/06/18 03:55:11;;;;;;;5.53;2.55;;;19.00;99.90;;;;;;5080796;28;20035;-65
2022/06/18 03:57:37;;;;;;;6.85;2.70;;;18.90;99.90;;;;;;5077161;28;20020;-64
2022/06/18 04:00:06;;;;;;;5.22;2.83;;;19.00;99.90;;;;;;5083263;28;20461;-66
2022/06/18 04:02:32;;;;;;;5.72;2.55;;;18.90;99.90;;;;;;5087184;28;20035;-67
2022/06/18 04:04:57;;;;;;;7.43;2.92;;;19.00;99.90;;;;;;5079534;28;20108;-65
2022/06/18 04:07:23;;;;;;;4.05;2.60;;;19.00;99.90;;;;;;5081113;28;20036;-67
2022/06/18 04:09:53;;;;;;;5.30;2.70;;;19.00;99.90;;;;;;5081173;28;20028;-65
2022/06/18 04:12:20;;;;;;;4.88;2.83;;;19.00;99.90;;;;;;5085260;28;20112;-65
2022/06/18 04:14:45;;;;;;;4.25;2.70;;;19.10;99.90;;;;;;5077848;28;20047;-66
2022/06/18 04:17:13;;;;;;;3.90;2.53;;;19.20;99.90;;;;;;5084857;28;20095;-65
2022/06/18 04:19:39;;;;;;;4.57;2.53;;;19.20;99.90;;;;;;5074420;28;20630;-66
2022/06/18 04:22:04;;;;;;;4.55;2.65;;;19.20;99.90;;;;;;5077373;28;20038;-66
2022/06/18 04:24:30;;;;;;;4.80;2.83;;;19.20;99.90;;;;;;5071560;28;20443;-66
2022/06/18 04:26:55;;;;;;;8.70;2.95;;;19.30;99.90;;;;;;5084015;28;20455;-65
2022/06/18 04:29:21;;;;;;;6.78;2.80;;;19.20;99.90;;;;;;5077772;28;20396;-67
2022/06/18 04:31:47;;;;;;;4.90;2.83;;;19.30;99.90;;;;;;5090627;28;20051;-67
2022/06/18 04:34:13;;;;;;;5.70;2.63;;;19.30;99.90;;;;;;5076649;28;20364;-66
2022/06/18 04:36:41;;;;;;;7.80;2.45;;;19.40;99.90;;;;;;5079740;28;20054;-66
2022/06/18 04:39:07;;;;;;;5.70;2.72;;;19.50;99.90;;;;;;5083831;28;20492;-66
2022/06/18 04:41:33;;;;;;;6.22;2.75;;;19.60;99.90;;;;;;5088188;28;20024;-67
2022/06/18 04:43:59;;;;;;;5.18;2.50;;;19.70;99.90;;;;;;5087625;28;20044;-67
2022/06/18 04:46:25;;;;;;;4.05;2.65;;;19.70;99.90;;;;;;5083520;28;20024;-67
2022/06/18 04:48:51;;;;;;;7.97;2.90;;;19.80;99.90;;;;;;5076802;28;20028;-67
2022/06/18 04:51:16;;;;;;;6.43;2.70;;;19.90;99.90;;;;;;5085382;28;20023;-67
2022/06/18 04:53:42;;;;;;;7.43;2.67;;;20.00;99.90;;;;;;5087465;28;20039;-66
2022/06/18 04:56:08;;;;;;;5.97;2.72;;;20.10;99.90;;;;;;5083188;28;20446;-67
2022/06/18 04:58:34;;;;;;;3.58;2.50;;;20.20;99.90;;;;;;5079176;28;20020;-66
2022/06/18 05:01:00;;;;;;;4.35;2.90;;;20.30;99.90;;;;;;5079361;28;20039;-66
2022/06/18 05:03:26;;;;;;;4.65;3.00;;;20.10;99.90;;;;;;5088067;28;20032;-66
2022/06/18 05:05:52;;;;;;;7.03;3.20;;;20.40;99.90;;;;;;5082232;28;20244;-67
2022/06/18 05:08:18;;;;;;;3.67;2.50;;;20.70;99.90;;;;;;5084945;28;20028;-66
2022/06/18 05:10:46;;;;;;;7.93;2.85;;;;;;;;;;5081010;28;20051;-67
2022/06/18 05:13:12;;;;;;;5.78;2.90;;;20.60;99.90;;;;;;5073633;28;20433;-66
2022/06/18 05:15:40;;;;;;;6.60;2.97;;;20.60;99.90;;;;;;5082199;28;20081;-67
2022/06/18 05:18:06;;;;;;;5.13;2.83;;;20.90;99.90;;;;;;5080024;28;20028;-67
2022/06/18 05:20:32;;;;;;;6.10;2.83;;;;;;;;;;5075465;28;20091;-67
2022/06/18 05:23:00;;;;;;;7.50;2.95;;;;;;;;;;5078312;28;20484;-66
2022/06/18 05:25:27;;;;;;;6.13;2.90;;;;;;;;;;5090141;28;20043;-67
2022/06/18 05:27:53;;;;;;;3.95;2.63;;;21.20;99.90;;;;;;5085052;28;20047;-67
2022/06/18 05:30:21;;;;;;;7.57;2.80;;;21.20;99.90;;;;;;5086889;28;20032;-67
2022/06/18 05:32:47;;;;;;;3.67;2.63;;;21.30;99.90;;;;;;5078640;28;20101;-68
2022/06/18 05:35:14;;;;;;;3.92;2.78;;;21.40;99.90;;;;;;5080525;28;20024;-67
2022/06/18 05:37:40;;;;;;;6.38;2.88;;;21.50;99.90;;;;;;5079839;28;20028;-67
2022/06/18 05:40:07;;;;;;;4.68;2.60;;;21.60;99.90;;;;;;5085408;28;20017;-67
2022/06/18 05:42:33;;;;;;;6.78;2.90;;;21.60;99.90;;;;;;5085462;28;20024;-67
2022/06/18 05:44:58;;;;;;;7.47;2.92;;;21.80;99.90;;;;;;5085864;28;20021;-67
2022/06/18 05:47:27;;;;;;;6.05;2.78;;;21.80;99.90;;;;;;5082793;28;20102;-67
2022/06/18 05:49:56;;;;;;;4.57;2.80;;;22.00;99.90;;;;;;5086240;28;20078;-67
2022/06/18 05:52:23;;;;;;;6.72;2.70;;;22.00;99.90;;;;;;5079014;28;20039;-68
2022/06/18 05:54:51;;;;;;;4.43;2.95;;;22.10;99.90;;;;;;5083088;28;20105;-66
2022/06/18 05:57:17;;;;;;;10.15;2.90;;;22.20;99.90;;;;;;5086238;28;20480;-66
2022/06/18 05:59:42;;;;;;;4.07;2.55;;;22.50;99.90;;;;;;5088186;28;20025;-67
2022/06/18 06:02:11;;;;;;;3.95;2.97;;;22.50;99.90;;;;;;5081613;28;20086;-66
2022/06/18 06:04:39;;;;;;;5.05;3.13;;;22.60;99.90;;;;;;5074716;28;20024;-66
2022/06/18 06:07:05;;;;;;;6.38;2.50;;;22.60;99.90;;;;;;5073122;28;20559;-67
2022/06/18 06:12:15;;;;;;;6.57;2.60;;;22.90;99.90;;;;;;5081611;28;20035;-68
2022/06/18 06:14:41;;;;;;;5.10;2.88;;;23.00;99.90;;;;;;5072852;28;20029;-66
2022/06/18 06:17:19;;;;;;;6.38;2.72;;;22.40;99.90;;;;;;5079139;28;20491;-67
2022/06/18 06:19:44;;;;;;;5.00;2.50;;;23.20;99.90;;;;;;5078955;28;20024;-67
2022/06/18 06:22:10;;;;;;;4.68;2.42;;;;;;;;;;5082101;28;20418;-67
2022/06/18 06:24:36;;;;;;;7.80;2.80;;;23.40;99.90;;;;;;5078745;28;20027;-66
2022/06/18 06:27:02;;;;;;;4.95;2.83;;;23.50;99.90;;;;;;5073886;28;20593;-66
2022/06/18 06:29:28;;;;;;;5.53;2.90;;;23.50;99.90;;;;;;5042982;28;1057451;-67
2022/06/18 06:31:53;;;;;;;3.17;2.53;;;23.60;99.90;;;;;;5084381;28;20035;-67
2022/06/18 06:34:19;;;;;;;6.70;2.95;;;23.60;99.90;;;;;;5079910;28;20564;-66
2022/06/18 06:36:44;;;;;;;7.95;3.13;;;23.60;99.90;;;;;;5078935;28;20388;-67
2022/06/18 06:39:10;;;;;;;4.28;2.60;;;23.70;99.90;;;;;;5071624;28;20035;-68
2022/06/18 06:41:36;;;;;;;6.00;3.10;;;23.80;99.90;;;;;;5085621;28;20035;-67
2022/06/18 06:44:01;;;;;;;6.80;3.13;;;23.90;99.90;;;;;;5079864;28;20024;-67
2022/06/18 06:46:27;;;;;;;6.65;3.00;;;23.90;99.90;;;;;;5077528;28;20024;-66
2022/06/18 06:48:53;;;;;;;6.47;3.03;;;24.00;99.90;;;;;;5073505;28;20063;-67
2022/06/18 06:51:22;;;;;;;10.77;2.75;;;24.00;99.90;;;;;;5078993;28;20016;-68
2022/06/18 06:53:49;;;;;;;6.47;3.08;;;;;;;;;;5069701;28;20124;-67
2022/06/18 06:59:00;;;;;;;6.40;2.85;;;24.10;99.90;;;;;;5078804;28;20113;-67
2022/06/18 07:01:26;;;;;;;8.45;3.00;;;24.30;99.90;;;;;;5071383;28;20535;-67
2022/06/18 07:03:52;;;;;;;6.03;2.95;;;24.30;99.90;;;;;;5087589;28;20032;-66
2022/06/18 07:06:18;;;;;;;9.00;2.92;;;24.30;99.90;;;;;;5074061;28;20052;-67
2022/06/18 07:08:44;;;;;;;7.88;3.20;;;24.40;99.90;;;;;;5079965;28;20562;-67
2022/06/18 07:11:11;;;;;;;9.98;3.00;;;24.40;99.90;;;;;;5075558;28;20137;-66
2022/06/18 07:13:37;;;;;;;8.77;3.40;;;24.50;99.90;;;;;;5080290;28;20027;-66
2022/06/18 07:16:04;;;;;;;9.68;3.42;;;24.50;99.90;;;;;;5074062;28;20088;-68
2022/06/18 07:18:32;;;;;;;8.77;3.33;;;24.90;99.90;;;;;;5079195;28;20016;-67
2022/06/18 07:21:00;;;;;;;6.00;3.00;;;25.90;99.90;;;;;;5071368;28;20032;-66
2022/06/18 07:23:26;;;;;;;11.65;3.50;;;24.80;99.90;;;;;;5080848;28;20466;-67
2022/06/18 07:25:52;;;;;;;7.85;3.15;;;24.80;99.90;;;;;;5082688;28;20022;-66
2022/06/18 07:28:18;;;;;;;12.27;3.28;;;24.70;99.90;;;;;;5072971;28;20035;-67
2022/06/18 07:30:46;;;;;;;6.38;3.15;;;24.60;99.90;;;;;;5080086;28;20044;-67
2022/06/18 07:33:14;;;;;;;10.13;3.42;;;24.80;99.90;;;;;;5081365;28;20024;-66
2022/06/18 07:35:40;;;;;;;12.38;3.30;;;24.90;99.90;;;;;;5082422;28;20039;-66
2022/06/18 07:38:05;;;;;;;10.77;3.95;;;25.00;99.90;;;;;;5083439;28;20016;-67
2022/06/18 07:40:35;;;;;;;7.18;3.40;;;25.10;99.90;;;;;;5080972;28;20095;-66
2022/06/18 07:43:03;;;;;;;9.57;3.25;;;25.10;99.90;;;;;;5082502;28;20035;-66
2022/06/18 07:45:28;;;;;;;7.70;3.30;;;25.20;99.90;;;;;;5077215;28;20508;-66
2022/06/18 07:47:54;;;;;;;13.25;3.83;;;25.30;99.90;;;;;;5074286;28;20107;-66
2022/06/18 07:50:21;;;;;;;12.45;3.60;;;25.30;99.90;;;;;;5071473;28;20160;-65
2022/06/18 07:52:47;;;;;;;10.70;3.53;;;25.30;99.90;;;;;;5082443;28;20032;-65
2022/06/18 07:55:21;;;;;;;8.85;3.40;;;25.50;99.90;;;;;;5082619;28;20019;-66
2022/06/18 07:57:47;;;;;;;9.00;3.42;;;25.40;99.90;;;;;;5074839;28;20055;-74
2022/06/18 08:00:16;;;;;;;11.73;4.07;;;25.50;99.90;;;;;;5075761;28;20025;-64
2022/06/18 08:02:43;;;;;;;7.45;3.83;;;25.60;99.90;;;;;;5081900;28;20387;-64
2022/06/18 08:05:11;;;;;;;10.20;3.78;;;25.60;99.90;;;;;;5084119;28;20143;-64
2022/06/18 08:07:36;;;;;;;9.63;3.40;;;25.70;99.90;;;;;;5077652;28;20209;-65
2022/06/18 08:10:03;;;;;;;8.70;3.33;;;25.90;99.90;;;;;;5079472;28;20112;-65
2022/06/18 08:12:30;;;;;;;17.15;4.05;;;25.90;99.90;;;;;;5074648;28;20387;-64
2022/06/18 08:14:58;;;;;;;10.85;3.75;;;25.90;99.90;;;;;;5082714;28;20043;-65
2022/06/18 08:17:23;;;;;;;8.85;3.33;;;25.90;99.90;;;;;;5080482;28;20024;-64
2022/06/18 08:19:49;;;;;;;8.00;3.35;;;26.10;99.90;;;;;;5081900;28;20052;-65
2022/06/18 08:22:14;;;;;;;10.70;4.22;;;26.30;99.90;;;;;;5075595;28;20035;-64
2022/06/18 08:24:40;;;;;;;11.57;3.90;;;26.20;99.90;;;;;;5082422;28;20024;-64
2022/06/18 08:27:06;;;;;;;7.97;3.30;;;26.30;99.90;;;;;;5072467;28;20107;-65
2022/06/18 08:29:34;;;;;;;21.00;10.75;;;26.40;99.90;;;;;;5077837;28;20027;-64
2022/06/18 08:32:00;;;;;;;13.95;3.92;;;26.60;99.90;;;;;;5083196;28;20125;-64
2022/06/18 08:34:26;;;;;;;16.60;3.95;;;26.60;99.90;;;;;;5080832;28;20084;-69
2022/06/18 08:36:51;;;;;;;12.30;4.03;;;26.50;99.90;;;;;;5069631;28;20644;-64
2022/06/18 08:39:17;;;;;;;10.85;3.95;;;26.50;99.90;;;;;;5080219;28;20025;-64
2022/06/18 08:42:13;;;;;;;12.00;3.72;;;26.50;99.90;;;;;;5085443;28;20387;-65
2022/06/18 08:45:19;;;;;;;9.68;4.10;;;26.60;99.90;;;;;;5073669;28;20750;-65
2022/06/18 08:48:05;;;;;;;11.82;3.65;;;26.70;99.90;;;;;;5077284;28;20551;-64
2022/06/18 08:51:04;;;;;;;11.65;4.82;;;26.70;99.90;;;;;;5075626;28;20024;-64
2022/06/18 08:53:39;;;;;;;23.52;11.18;;;26.70;99.90;;;;;;5076123;28;20032;-65
2022/06/18 08:56:44;;;;;;;13.98;7.40;;;26.90;99.90;;;;;;5083979;28;20703;-65
2022/06/18 08:59:50;;;;;;;14.00;3.80;;;27.00;99.90;;;;;;5082980;28;20020;-65
2022/06/18 09:02:28;;;;;;;23.58;6.35;;;27.20;99.90;;;;;;5041825;28;20482;-65
2022/06/18 09:05:25;;;;;;;14.82;4.75;;;27.40;99.90;;;;;;5073346;28;20108;-64
2022/06/18 09:08:17;;;;;;;20.92;7.28;;;27.30;99.90;;;;;;5075060;28;20071;-64
2022/06/18 09:11:04;;;;;;;13.85;3.72;;;27.20;99.90;;;;;;5075868;28;20125;-65
2022/06/18 09:13:36;;;;;;;11.07;3.55;;;27.30;99.90;;;;;;5082208;28;20043;-65
2022/06/18 09:16:07;;;;;;;15.77;5.20;;;27.30;99.90;;;;;;5076323;28;20024;-65
2022/06/18 09:18:45;;;;;;;10.32;3.30;;;27.30;99.90;;;;;;5076493;28;20450;-65
2022/06/18 09:21:16;;;;;;;16.33;5.45;;;27.30;99.90;;;;;;5074325;28;20020;-65
2022/06/18 09:24:02;;;;;;;11.82;3.20;;;27.40;99.90;;;;;;5085749;28;20031;-65
2022/06/18 09:26:39;;;;;;;11.13;4.70;;;27.60;99.90;;;;;;5084591;28;20028;-64
2022/06/18 09:29:26;;;;;;;18.45;3.72;;;27.70;99.90;;;;;;5082831;28;20534;-65
2022/06/18 09:32:04;;;;;;;15.88;6.60;;;28.10;99.90;;;;;;5084538;28;20546;-65
2022/06/18 09:34:52;;;;;;;11.77;3.28;;;27.90;99.90;;;;;;5084297;28;20682;-65
2022/06/18 09:37:26;;;;;;;12.85;5.63;;;28.00;99.90;;;;;;5083746;28;20051;-65
2022/06/18 09:39:57;;;;;;;9.10;3.30;;;28.00;99.90;;;;;;5085412;28;20023;-65
2022/06/18 09:42:27;;;;;;;12.07;5.20;;;28.10;99.90;;;;;;5081428;28;20515;-65
2022/06/18 09:45:20;;;;;;;9.90;4.22;;;28.20;99.90;;;;;;5082903;28;20134;-65
2022/06/18 09:47:48;;;;;;;10.93;4.47;;;28.20;99.90;;;;;;5079168;28;20479;-65
2022/06/18 09:50:26;;;;;;;11.95;4.00;;;28.20;99.90;;;;;;5079589;28;20038;-65
2022/06/18 09:53:00;;;;;;;12.98;3.17;;;28.30;99.90;;;;;;5078279;28;20028;-65
2022/06/18 09:55:39;;;;;;;11.30;4.28;;;28.40;99.90;;;;;;5083383;28;20020;-65
2022/06/18 09:58:19;;;;;;;14.50;3.40;;;28.40;99.90;;;;;;5086145;28;20495;-65
2022/06/18 10:00:46;;;;;;;71.90;47.05;;;28.30;99.90;;;;;;5080965;28;20032;-65
2022/06/18 10:08:53;;;;;;;15.15;3.72;;;28.50;99.90;;;;;;5074166;28;20047;-65
2022/06/18 10:11:21;;;;;;;18.92;7.82;;;28.50;99.90;;;;;;5093035;28;20066;-65
2022/06/18 10:13:56;;;;;;;11.35;3.22;;;28.60;99.90;;;;;;5078601;28;20109;-65
2022/06/18 10:16:34;;;;;;;14.90;4.03;;;28.60;99.90;;;;;;5083822;28;20465;-66
2022/06/18 10:19:13;;;;;;;23.63;9.63;;;28.60;99.90;;;;;;5082132;28;20493;-65
2022/06/18 10:21:50;;;;;;;12.82;4.75;;;28.90;99.90;;;;;;5081460;28;20566;-65
2022/06/18 10:24:28;;;;;;;11.00;4.28;;;29.00;99.90;;;;;;5087851;28;20024;-65
2022/06/18 10:27:39;;;;;;;12.35;3.30;;;29.00;99.90;;;;;;5075047;28;20064;-65
2022/06/18 10:30:10;;;;;;;13.18;3.97;;;29.10;99.90;;;;;;5088908;28;20060;-65
2022/06/18 10:33:04;;;;;;;8.85;3.83;;;29.00;99.90;;;;;;5082473;28;20119;-65
2022/06/18 10:35:56;;;;;;;8.60;3.50;;;29.10;99.90;;;;;;5072509;28;20048;-65
2022/06/18 10:38:22;;;;;;;11.63;3.03;;;29.00;99.90;;;;;;5083285;28;20048;-65
2022/06/18 10:41:18;;;;;;;13.95;3.88;;;29.10;99.90;;;;;;5078024;28;20518;-65
2022/06/18 10:43:58;;;;;;;89.63;76.05;;;29.20;99.90;;;;;;5078227;28;20032;-68
2022/06/18 10:46:24;;;;;;;16.90;4.25;;;29.10;99.90;;;;;;5078696;28;20121;-69
2022/06/18 10:48:57;;;;;;;14.25;4.20;;;27.30;99.90;;;;;;5081538;28;20476;-69
2022/06/18 10:51:26;;;;;;;13.65;3.55;;;29.20;99.90;;;;;;5079266;28;20109;-69
2022/06/18 10:53:55;;;;;;;15.27;3.80;;;29.20;99.90;;;;;;5077793;28;20081;-69
2022/06/18 10:56:24;;;;;;;26.58;12.38;;;29.20;99.90;;;;;;5074857;28;20123;-68
2022/06/18 10:58:53;;;;;;;90.05;60.25;;;29.20;99.90;;;;;;5076303;28;20490;-69
2022/06/18 11:01:38;;;;;;;13.00;5.60;;;29.20;99.90;;;;;;5078179;28;20024;-69
2022/06/18 11:04:18;;;;;;;12.15;3.97;;;29.20;99.90;;;;;;5080830;28;20024;-69
2022/06/18 11:06:46;;;;;;;19.88;6.15;;;29.20;99.90;;;;;;5076068;28;20293;-69
2022/06/18 11:09:24;;;;;;;21.88;8.57;;;29.20;99.90;;;;;;5083024;28;20548;-68
2022/06/18 11:11:56;;;;;;;32.60;18.02;;;29.30;99.90;;;;;;5080360;28;20069;-68
2022/06/18 11:14:22;;;;;;;12.55;4.53;;;29.30;99.90;;;;;;5076399;28;20031;-69
2022/06/18 11:16:51;;;;;;;23.48;12.88;;;29.50;99.90;;;;;;5077065;28;20024;-69
2022/06/18 11:19:48;;;;;;;16.80;6.53;;;29.50;99.90;;;;;;5084822;28;20020;-68
2022/06/18 11:22:28;;;;;;;18.02;3.85;;;29.60;99.90;;;;;;5073373;28;20082;-68
2022/06/18 11:25:00;;;;;;;12.63;4.03;;;29.70;99.90;;;;;;5086283;28;20041;-69
2022/06/18 11:27:36;;;;;;;17.08;8.63;;;29.30;99.90;;;;;;5075033;28;20033;-69
2022/06/18 11:30:17;;;;;;;10.68;3.10;;;30.00;99.90;;;;;;5079093;28;20120;-68
2022/06/18 11:32:47;;;;;;;11.57;4.60;;;29.60;99.90;;;;;;5086657;28;20372;-69
2022/06/18 11:35:13;;;;;;;18.35;7.60;;;29.80;99.90;;;;;;5083090;28;20748;-69
2022/06/18 11:37:39;;;;;;;23.40;12.38;;;29.70;99.90;;;;;;5088465;28;20043;-69
2022/06/18 11:40:09;;;;;;;15.27;3.65;;;29.60;99.90;;;;;;5079751;28;20024;-68
2022/06/18 11:42:49;;;;;;;13.48;3.60;;;29.70;99.90;;;;;;5086168;28;20255;-69
2022/06/18 11:45:36;;;;;;;16.65;6.00;;;29.60;99.90;;;;;;5077356;28;20024;-68
2022/06/18 11:48:28;;;;;;;26.38;12.02;;;29.70;99.90;;;;;;5077075;28;20028;-67
2022/06/18 11:51:05;;;;;;;15.75;3.90;;;29.70;99.90;;;;;;5078293;28;20036;-67
2022/06/18 11:54:11;;;;;;;14.90;4.25;;;29.90;99.90;;;;;;5081864;28;20468;-67
2022/06/18 11:56:56;;;;;;;15.27;4.60;;;29.90;99.90;;;;;;5042164;28;20133;-67
2022/06/18 11:59:36;;;;;;;16.38;4.63;;;29.90;99.90;;;;;;5082678;28;20019;-67
2022/06/18 12:02:31;;;;;;;14.20;4.55;;;30.10;99.90;;;;;;5082564;28;20118;-67
2022/06/18 12:05:04;;;;;;;15.43;5.50;;;30.00;99.90;;;;;;5085064;28;20111;-64
2022/06/18 12:07:37;;;;;;;18.55;8.13;;;30.20;99.90;;;;;;5083252;28;20024;-73
2022/06/18 12:10:03;;;;;;;;;;;30.20;99.90;;;;;;5076973;28;20028;-66
2022/06/18 12:12:46;;;;;;;15.73;3.95;;;30.00;99.90;;;;;;5079981;28;19995;-66
2022/06/18 12:15:32;;;;;;;17.55;4.53;;;30.10;99.90;;;;;;5084881;28;20565;-66
2022/06/18 12:18:12;;;;;;;7.72;3.20;;;30.20;99.90;;;;;;5080185;28;20111;-66
2022/06/18 12:20:40;;;;;;;14.77;3.83;;;30.20;99.90;;;;;;5075507;28;20047;-66
2022/06/18 12:23:22;;;;;;;18.55;8.93;;;30.20;99.90;;;;;;5082528;28;20020;-66
2022/06/18 12:26:03;;;;;;;17.58;4.07;;;30.20;99.90;;;;;;5077927;28;20027;-66
2022/06/18 12:29:04;;;;;;;18.83;3.60;;;30.50;99.90;;;;;;5079645;28;20039;-66
2022/06/18 12:31:35;;;;;;;20.77;4.82;;;30.50;99.90;;;;;;5075635;28;20117;-66
2022/06/18 12:34:12;;;;;;;12.40;3.70;;;30.40;99.90;;;;;;5076458;28;20668;-66
2022/06/18 12:36:54;;;;;;;18.85;3.90;;;30.40;99.90;;;;;;5077339;28;20598;-66
2022/06/18 12:39:37;;;;;;;17.25;4.00;;;30.50;99.90;;;;;;5072281;28;20016;-66
2022/06/18 12:42:22;;;;;;;14.70;3.88;;;30.70;99.90;;;;;;5073473;28;20037;-66
2022/06/18 12:45:11;;;;;;;20.23;7.05;;;30.60;99.90;;;;;;5072281;28;20732;-66
2022/06/18 12:48:04;;;;;;;15.15;3.83;;;30.50;99.90;;;;;;5072007;28;20044;-66
2022/06/18 12:50:50;;;;;;;23.05;4.40;;;30.70;99.90;;;;;;5071621;28;20032;-66
2022/06/18 12:53:19;;;;;;;10.90;3.78;;;30.90;99.90;;;;;;5073864;28;20598;-66
2022/06/18 12:56:01;;;;;;;17.25;4.32;;;30.80;99.90;;;;;;5078176;28;20027;-66
2022/06/18 12:58:57;;;;;;;14.05;4.97;;;30.90;99.90;;;;;;5074056;28;20067;-66
2022/06/18 13:01:38;;;;;;;56.83;33.28;;;31.10;99.90;;;;;;5084912;28;20089;-66
2022/06/18 13:04:10;;;;;;;35.65;19.40;;;30.90;99.90;;;;;;5083471;28;20028;-66
2022/06/18 13:06:44;;;;;;;23.50;13.13;;;30.80;99.90;;;;;;5080117;28;20036;-66
2022/06/18 13:09:16;;;;;;;37.70;11.82;;;30.90;99.90;;;;;;5077139;28;20131;-66
2022/06/18 13:11:48;;;;;;;16.85;4.78;;;31.10;99.90;;;;;;5084560;28;20020;-66
2022/06/18 13:14:25;;;;;;;14.00;4.80;;;31.20;99.90;;;;;;5079259;28;20500;-66
2022/06/18 13:16:56;;;;;;;14.50;3.83;;;31.00;99.90;;;;;;5080864;28;20020;-66
2022/06/18 13:19:30;;;;;;;78.28;56.20;;;31.20;99.90;;;;;;5081026;28;20400;-66
2022/06/18 13:21:56;;;;;;;15.95;5.93;;;31.20;99.90;;;;;;5077823;28;20039;-66
2022/06/18 13:30:35;;;;;;;46.60;29.88;;;31.10;99.90;;;;;;5078490;28;20135;-66
2022/06/18 13:33:16;;;;;;;16.55;8.23;;;31.10;99.90;;;;;;5081013;28;20032;-66